createdAt,value
2023-04-30T00:01:38.780Z,53.71
2023-04-30T00:04:06.322Z,53.71
2023-04-30T00:06:34.177Z,53.73
2023-04-30T00:09:01.489Z,53.69
2023-04-30T00:11:29.028Z,53.69
2023-04-30T00:13:57.135Z,53.64
2023-04-30T00:16:24.854Z,53.65
2023-04-30T00:18:52.174Z,53.68
2023-04-30T00:21:19.932Z,53.65
2023-04-30T00:23:47.308Z,53.59
2023-04-30T00:26:15.549Z,53.69
2023-04-30T00:28:42.820Z,53.60
2023-04-30T00:31:10.376Z,53.65
2023-04-30T00:33:37.678Z,53.50
2023-04-30T00:36:05.882Z,53.56
2023-04-30T00:38:34.109Z,53.58
2023-04-30T00:41:01.994Z,53.48
2023-04-30T00:43:29.331Z,53.50
2023-04-30T00:45:58.679Z,53.51
2023-04-30T00:48:27.782Z,53.34
2023-04-30T00:50:56.048Z,53.33
2023-04-30T00:53:23.497Z,53.29
2023-04-30T00:55:52.030Z,53.24
2023-04-30T00:58:19.642Z,53.33
2023-04-30T01:00:47.981Z,53.31
2023-04-30T01:03:16.283Z,53.38
2023-04-30T01:05:44.071Z,53.40
2023-04-30T01:08:11.858Z,53.31
2023-04-30T01:10:54.265Z,53.33
2023-04-30T01:13:41.016Z,53.34
2023-04-30T01:16:28.494Z,53.38
2023-04-30T01:19:11.854Z,53.21
2023-04-30T01:21:42.887Z,53.30
2023-04-30T01:24:13.112Z,53.29
2023-04-30T01:27:17.916Z,53.29
2023-04-30T01:29:45.367Z,53.28
2023-04-30T01:32:13.375Z,53.14
2023-04-30T01:34:40.642Z,53.13
2023-04-30T01:37:27.302Z,53.29
2023-04-30T01:40:21.646Z,53.11
2023-04-30T01:43:17.942Z,53.27
2023-04-30T01:46:08.208Z,53.14
2023-04-30T01:49:00.936Z,53.09
2023-04-30T01:51:28.173Z,53.18
2023-04-30T01:54:01.096Z,53.07
2023-04-30T01:56:32.901Z,53.12
2023-04-30T01:59:01.668Z,53.02
2023-04-30T02:01:30.917Z,53.00
2023-04-30T02:03:59.514Z,52.96
2023-04-30T02:06:30.440Z,53.03
2023-04-30T02:09:02.318Z,53.08
2023-04-30T02:11:29.922Z,53.06
2023-04-30T02:13:57.541Z,52.88
2023-04-30T02:16:24.995Z,52.95
2023-04-30T02:18:52.536Z,52.96
2023-04-30T02:21:19.889Z,52.85
2023-04-30T02:23:48.351Z,52.98
2023-04-30T02:26:15.816Z,52.94
2023-04-30T02:28:43.447Z,52.77
2023-04-30T02:31:11.612Z,52.92
2023-04-30T02:33:39.294Z,52.87
2023-04-30T02:36:06.702Z,52.94
2023-04-30T02:38:34.438Z,52.91
2023-04-30T02:41:02.323Z,52.73
2023-04-30T02:43:30.354Z,52.73
2023-04-30T02:45:57.718Z,52.73
2023-04-30T02:48:25.500Z,52.78
2023-04-30T02:50:52.861Z,52.65
2023-04-30T02:53:20.515Z,52.79
2023-04-30T02:55:47.846Z,52.71
2023-04-30T02:58:15.525Z,52.56
2023-04-30T03:00:42.795Z,52.54
2023-04-30T03:03:10.422Z,52.46
2023-04-30T03:05:37.782Z,52.67
2023-04-30T03:08:05.428Z,52.51
2023-04-30T03:10:32.708Z,52.60
2023-04-30T03:13:00.303Z,52.57
2023-04-30T03:15:27.543Z,52.39
2023-04-30T03:17:55.320Z,52.45
2023-04-30T03:20:22.802Z,52.48
2023-04-30T03:22:50.279Z,52.46
2023-04-30T03:25:17.684Z,52.60
2023-04-30T03:27:45.241Z,52.41
2023-04-30T03:30:13.085Z,52.30
2023-04-30T03:32:40.631Z,52.31
2023-04-30T03:35:08.632Z,52.33
2023-04-30T03:37:36.194Z,52.50
2023-04-30T03:40:04.962Z,52.39
2023-04-30T03:42:33.268Z,52.39
2023-04-30T03:45:00.908Z,52.42
2023-04-30T03:47:28.547Z,52.42
2023-04-30T03:49:56.319Z,52.47
2023-04-30T03:52:24.206Z,52.31
2023-04-30T03:54:52.286Z,52.26
2023-04-30T03:57:20.117Z,52.43
2023-04-30T03:59:47.638Z,52.29
2023-04-30T04:02:15.230Z,52.28
2023-04-30T04:04:42.894Z,52.21
2023-04-30T04:07:11.435Z,52.31
2023-04-30T04:09:38.876Z,52.34
2023-04-30T04:12:06.729Z,52.25
2023-04-30T04:14:34.344Z,52.21
2023-04-30T04:17:02.090Z,52.17
2023-04-30T04:19:29.470Z,52.19
2023-04-30T04:21:57.657Z,52.00
2023-04-30T04:24:25.813Z,52.14
2023-04-30T04:26:53.891Z,52.29
2023-04-30T04:29:21.251Z,52.10
2023-04-30T04:31:51.073Z,52.10
2023-04-30T04:34:20.152Z,52.10
2023-04-30T04:36:47.778Z,52.16
2023-04-30T04:39:15.333Z,52.46
2023-04-30T04:41:42.919Z,52.06
2023-04-30T04:44:10.254Z,52.10
2023-04-30T04:46:42.321Z,51.94
2023-04-30T04:49:10.225Z,52.07
2023-04-30T04:51:39.551Z,51.96
2023-04-30T04:54:06.913Z,52.03
2023-04-30T04:56:34.514Z,51.90
2023-04-30T04:59:02.212Z,51.95
2023-04-30T05:01:29.972Z,51.93
2023-04-30T05:03:57.402Z,51.86
2023-04-30T05:06:25.188Z,51.76
2023-04-30T05:08:52.588Z,51.86
2023-04-30T05:11:22.181Z,51.71
2023-04-30T05:13:49.454Z,51.77
2023-04-30T05:16:17.394Z,51.65
2023-04-30T05:18:44.769Z,51.63
2023-04-30T05:21:12.522Z,51.39
2023-04-30T05:23:39.873Z,50.89
2023-04-30T05:26:07.979Z,49.48
2023-04-30T05:28:35.556Z,49.10
2023-04-30T05:31:03.328Z,48.48
2023-04-30T05:33:30.594Z,48.44
2023-04-30T05:35:58.208Z,47.82
2023-04-30T05:38:25.672Z,47.72
2023-04-30T05:40:53.231Z,49.23
2023-04-30T05:43:20.634Z,49.97
2023-04-30T05:45:48.297Z,50.42
2023-04-30T05:48:15.789Z,50.09
2023-04-30T05:50:43.653Z,48.95
2023-04-30T05:53:11.005Z,49.43
2023-04-30T05:55:38.785Z,49.82
2023-04-30T05:58:06.422Z,49.84
2023-04-30T06:00:34.444Z,49.75
2023-04-30T06:03:01.886Z,49.50
2023-04-30T06:05:29.501Z,49.25
2023-04-30T06:07:56.941Z,49.27
2023-04-30T06:10:24.496Z,49.32
2023-04-30T06:12:51.837Z,49.42
2023-04-30T06:15:19.546Z,49.31
2023-04-30T06:17:46.946Z,49.38
2023-04-30T06:20:15.166Z,49.15
2023-04-30T06:22:42.715Z,49.37
2023-04-30T06:25:10.424Z,49.26
2023-04-30T06:27:37.789Z,49.27
2023-04-30T06:30:06.924Z,49.42
2023-04-30T06:32:34.425Z,49.48
2023-04-30T06:35:02.090Z,49.43
2023-04-30T06:37:30.285Z,49.30
2023-04-30T06:39:58.577Z,49.37
2023-04-30T06:42:26.240Z,49.32
2023-04-30T06:44:55.398Z,49.40
2023-04-30T06:47:22.818Z,49.36
2023-04-30T06:49:50.566Z,49.50
2023-04-30T06:52:17.904Z,49.53
2023-04-30T06:54:45.491Z,49.44
2023-04-30T06:57:12.887Z,49.48
2023-04-30T06:59:40.572Z,49.52
2023-04-30T07:02:08.063Z,49.43
2023-04-30T07:04:35.934Z,49.46
2023-04-30T07:07:03.321Z,49.45
2023-04-30T07:09:30.975Z,49.53
2023-04-30T07:12:01.608Z,49.54
2023-04-30T07:14:29.137Z,49.45
2023-04-30T07:16:56.510Z,49.48
2023-04-30T07:19:26.872Z,49.40
2023-04-30T07:21:54.168Z,49.38
2023-04-30T07:24:21.713Z,49.46
2023-04-30T07:26:49.064Z,49.43
2023-04-30T07:29:18.191Z,49.31
2023-04-30T07:31:45.664Z,49.28
2023-04-30T07:34:13.396Z,49.23
2023-04-30T07:36:41.038Z,49.21
2023-04-30T07:39:08.604Z,49.30
2023-04-30T07:41:36.390Z,49.21
2023-04-30T07:44:04.124Z,49.12
2023-04-30T07:46:31.579Z,49.18
2023-04-30T07:48:59.221Z,49.08
2023-04-30T07:51:26.973Z,49.16
2023-04-30T07:53:54.595Z,49.25
2023-04-30T07:56:22.039Z,49.21
2023-04-30T07:58:49.603Z,49.17
2023-04-30T08:01:17.132Z,49.04
2023-04-30T08:03:44.828Z,49.00
2023-04-30T08:06:13.606Z,49.08
2023-04-30T08:08:41.243Z,49.10
2023-04-30T08:11:08.771Z,48.79
2023-04-30T08:13:36.840Z,49.05
2023-04-30T08:16:04.567Z,49.03
2023-04-30T08:18:32.256Z,48.78
2023-04-30T08:21:00.737Z,48.77
2023-04-30T08:23:28.416Z,48.72
2023-04-30T08:25:56.160Z,48.81
2023-04-30T08:28:23.757Z,48.73
2023-04-30T08:30:51.584Z,48.77
2023-04-30T08:33:19.242Z,48.86
2023-04-30T08:35:46.654Z,48.86
2023-04-30T08:38:14.177Z,49.00
2023-04-30T08:43:13.547Z,48.83
2023-04-30T08:45:41.779Z,48.75
2023-04-30T08:48:15.727Z,48.62
2023-04-30T08:50:43.261Z,48.44
2023-04-30T08:53:12.650Z,48.48
2023-04-30T08:55:41.302Z,48.49
2023-04-30T08:58:10.729Z,48.62
2023-04-30T09:00:38.708Z,48.72
2023-04-30T09:03:08.268Z,48.61
2023-04-30T09:05:38.414Z,48.51
2023-04-30T09:08:08.598Z,48.58
2023-04-30T09:10:36.056Z,48.65
2023-04-30T09:13:12.024Z,48.66
2023-04-30T09:15:45.634Z,48.64
2023-04-30T09:18:17.320Z,48.60
2023-04-30T09:21:00.759Z,48.71
2023-04-30T09:23:29.196Z,48.42
2023-04-30T09:25:57.038Z,48.15
2023-04-30T09:28:26.492Z,48.01
2023-04-30T09:30:54.180Z,47.74
2023-04-30T09:33:21.750Z,47.81
2023-04-30T09:35:49.331Z,47.83
2023-04-30T09:38:31.899Z,47.81
2023-04-30T09:41:00.995Z,47.71
2023-04-30T09:43:29.312Z,47.47
2023-04-30T09:45:59.157Z,47.38
2023-04-30T09:48:31.271Z,47.51
2023-04-30T09:50:58.608Z,47.54
2023-04-30T09:53:26.988Z,47.29
2023-04-30T09:55:56.197Z,47.45
2023-04-30T09:58:28.232Z,47.38
2023-04-30T10:00:59.827Z,47.15
2023-04-30T10:03:27.961Z,47.28
2023-04-30T10:05:55.660Z,47.38
2023-04-30T10:08:40.519Z,47.35
2023-04-30T10:11:09.667Z,47.18
2023-04-30T10:13:53.298Z,47.35
2023-04-30T10:16:52.831Z,47.21
2023-04-30T10:19:24.450Z,47.34
2023-04-30T10:21:52.632Z,47.39
2023-04-30T10:24:20.997Z,47.36
2023-04-30T10:26:49.660Z,47.36
2023-04-30T10:29:18.374Z,47.24
2023-04-30T10:31:48.872Z,47.27
2023-04-30T10:34:22.593Z,47.38
2023-04-30T10:36:56.925Z,47.49
2023-04-30T10:39:30.030Z,47.39
2023-04-30T10:42:05.042Z,47.47
2023-04-30T10:44:41.819Z,47.41
2023-04-30T10:47:09.473Z,47.42
2023-04-30T10:49:37.116Z,47.24
2023-04-30T10:52:06.646Z,47.35
2023-04-30T10:54:36.055Z,47.21
2023-04-30T10:57:14.789Z,47.14
2023-04-30T10:59:47.367Z,47.15
2023-04-30T11:02:17.669Z,47.11
2023-04-30T11:05:08.958Z,47.04
2023-04-30T11:07:36.459Z,46.92
2023-04-30T11:10:08.389Z,47.17
2023-04-30T11:12:41.546Z,47.03
2023-04-30T11:15:17.867Z,46.91
2023-04-30T11:17:46.217Z,46.91
2023-04-30T11:20:15.059Z,46.88
2023-04-30T11:22:42.388Z,46.82
2023-04-30T11:25:10.590Z,46.65
2023-04-30T11:27:40.972Z,46.37
2023-04-30T11:30:15.044Z,46.13
2023-04-30T11:32:48.148Z,46.20
2023-04-30T11:35:19.215Z,46.18
2023-04-30T11:37:48.785Z,46.09
2023-04-30T11:40:16.485Z,46.07
2023-04-30T11:42:46.072Z,46.14
2023-04-30T11:45:21.011Z,45.84
2023-04-30T11:47:51.468Z,45.85
2023-04-30T11:50:27.121Z,45.87
2023-04-30T11:52:56.675Z,45.82
2023-04-30T11:55:26.576Z,45.88
2023-04-30T11:57:56.624Z,45.63
2023-04-30T12:00:29.463Z,45.55
2023-04-30T12:02:59.485Z,45.62
2023-04-30T12:05:28.121Z,45.47
2023-04-30T12:08:06.389Z,45.43
2023-04-30T12:10:34.316Z,45.41
2023-04-30T12:13:02.122Z,45.11
2023-04-30T12:15:29.780Z,45.37
2023-04-30T12:17:58.974Z,45.23
2023-04-30T12:20:28.723Z,45.43
2023-04-30T12:22:56.985Z,45.41
2023-04-30T12:25:24.978Z,45.32
2023-04-30T12:27:53.687Z,45.17
2023-04-30T12:30:23.721Z,45.13
2023-04-30T12:32:53.249Z,45.28
2023-04-30T12:35:22.688Z,45.08
2023-04-30T12:38:02.354Z,45.04
2023-04-30T12:40:30.671Z,45.30
2023-04-30T12:43:03.596Z,45.04
2023-04-30T12:45:51.966Z,44.94
2023-04-30T12:48:21.734Z,44.89
2023-04-30T12:51:02.768Z,44.76
2023-04-30T12:53:30.091Z,44.87
2023-04-30T12:56:12.389Z,44.84
2023-04-30T12:58:40.474Z,44.72
2023-04-30T13:01:12.857Z,43.85
2023-04-30T13:03:40.401Z,43.06
2023-04-30T13:06:08.241Z,42.85
2023-04-30T13:08:45.526Z,42.75
2023-04-30T13:11:17.681Z,42.51
2023-04-30T13:13:44.964Z,42.59
2023-04-30T13:16:12.641Z,42.78
2023-04-30T13:18:39.856Z,42.51
2023-04-30T13:21:07.802Z,42.58
2023-04-30T13:23:44.516Z,42.46
2023-04-30T13:26:19.304Z,42.50
2023-04-30T13:28:46.536Z,42.69
2023-04-30T13:31:14.186Z,42.75
2023-04-30T13:33:41.631Z,42.77
2023-04-30T13:36:09.342Z,42.78
2023-04-30T13:38:36.618Z,42.62
2023-04-30T13:41:04.232Z,42.67
2023-04-30T13:43:31.492Z,42.54
2023-04-30T13:45:59.021Z,42.62
2023-04-30T13:48:26.497Z,42.53
2023-04-30T13:50:54.176Z,42.60
2023-04-30T13:53:21.589Z,42.62
2023-04-30T13:55:49.212Z,42.57
2023-04-30T13:58:16.678Z,42.58
2023-04-30T14:00:44.594Z,42.78
2023-04-30T14:03:12.648Z,42.41
2023-04-30T14:05:40.738Z,42.60
2023-04-30T14:08:07.958Z,42.72
2023-04-30T14:10:35.473Z,42.68
2023-04-30T14:13:02.753Z,42.60
2023-04-30T14:15:32.332Z,42.50
2023-04-30T14:18:00.574Z,42.77
2023-04-30T14:20:28.346Z,42.49
2023-04-30T14:22:55.769Z,42.65
2023-04-30T14:25:23.973Z,42.47
2023-04-30T14:27:51.215Z,42.59
2023-04-30T14:30:18.734Z,42.54
2023-04-30T14:32:45.957Z,42.56
2023-04-30T14:35:13.520Z,42.62
2023-04-30T14:37:40.777Z,42.51
2023-04-30T14:40:09.565Z,42.60
2023-04-30T14:42:36.837Z,42.63
2023-04-30T14:45:04.897Z,42.76
2023-04-30T14:47:32.642Z,42.46
2023-04-30T14:50:02.190Z,42.55
2023-04-30T14:52:29.530Z,42.62
2023-04-30T14:54:57.407Z,42.63
2023-04-30T14:57:25.015Z,42.58
2023-04-30T14:59:55.089Z,42.58
2023-04-30T15:02:22.587Z,42.50
2023-04-30T15:04:50.615Z,42.72
2023-04-30T15:07:18.650Z,42.71
2023-04-30T15:09:47.100Z,42.66
2023-04-30T15:12:14.824Z,42.60
2023-04-30T15:14:42.453Z,42.65
2023-04-30T15:17:09.772Z,42.66
2023-04-30T15:19:37.973Z,42.61
2023-04-30T15:22:06.762Z,42.61
2023-04-30T15:24:34.521Z,42.63
2023-04-30T15:27:02.031Z,42.49
2023-04-30T15:29:29.567Z,42.48
2023-04-30T15:31:57.070Z,42.38
2023-04-30T15:34:24.563Z,42.49
2023-04-30T15:36:51.921Z,42.44
2023-04-30T15:39:19.635Z,42.41
2023-04-30T15:41:47.006Z,42.20
2023-04-30T15:44:14.984Z,42.21
2023-04-30T15:46:42.431Z,42.18
2023-04-30T15:49:09.860Z,42.08
2023-04-30T15:51:38.486Z,42.13
2023-04-30T15:54:11.282Z,41.99
2023-04-30T15:56:39.608Z,42.04
2023-04-30T15:59:07.249Z,41.96
2023-04-30T16:01:34.850Z,42.10
2023-04-30T16:04:02.339Z,41.85
2023-04-30T16:06:31.948Z,41.78
2023-04-30T16:09:01.837Z,41.62
2023-04-30T16:11:30.227Z,41.81
2023-04-30T16:13:57.460Z,41.49
2023-04-30T16:16:27.846Z,41.52
2023-04-30T16:18:55.615Z,41.47
2023-04-30T16:21:23.846Z,41.54
2023-04-30T16:23:51.090Z,41.37
2023-04-30T16:26:18.722Z,41.42
2023-04-30T16:28:46.914Z,41.72
2023-04-30T16:31:15.621Z,41.46
2023-04-30T16:33:43.527Z,41.46
2023-04-30T16:36:11.107Z,41.38
2023-04-30T16:38:38.399Z,41.37
2023-04-30T16:41:06.720Z,41.39
2023-04-30T16:43:34.164Z,41.29
2023-04-30T16:46:01.668Z,41.50
2023-04-30T16:48:28.998Z,41.42
2023-04-30T16:50:56.568Z,41.58
2023-04-30T16:53:23.775Z,41.32
2023-04-30T16:55:52.816Z,41.38
2023-04-30T16:58:20.120Z,41.44
2023-04-30T17:00:47.667Z,41.59
2023-04-30T17:03:15.019Z,41.47
2023-04-30T17:05:43.998Z,41.37
2023-04-30T17:08:11.316Z,41.41
2023-04-30T17:10:39.207Z,41.38
2023-04-30T17:13:06.587Z,41.47
2023-04-30T17:15:34.247Z,41.27
2023-04-30T17:18:01.612Z,41.37
2023-04-30T17:20:29.153Z,41.29
2023-04-30T17:22:56.920Z,41.50
2023-04-30T17:25:25.187Z,41.50
2023-04-30T17:27:52.570Z,41.53
2023-04-30T17:30:20.377Z,41.42
2023-04-30T17:32:47.731Z,41.38
2023-04-30T17:35:15.299Z,41.49
2023-04-30T17:37:42.650Z,41.47
2023-04-30T17:40:10.525Z,41.48
2023-04-30T17:42:38.881Z,41.49
2023-04-30T17:45:07.058Z,41.52
2023-04-30T17:47:34.338Z,41.46
2023-04-30T17:50:04.850Z,41.47
2023-04-30T17:52:35.475Z,41.38
2023-04-30T17:55:03.163Z,41.44
2023-04-30T17:57:31.030Z,41.43
2023-04-30T17:59:58.901Z,41.48
2023-04-30T18:02:26.502Z,41.33
2023-04-30T18:04:54.167Z,41.41
2023-04-30T18:07:21.449Z,41.25
2023-04-30T18:09:49.024Z,41.38
2023-04-30T18:12:17.460Z,41.29
2023-04-30T18:14:45.277Z,41.27
2023-04-30T18:17:12.629Z,41.37
2023-04-30T18:19:44.749Z,41.31
2023-04-30T18:22:12.656Z,41.44
2023-04-30T18:24:40.439Z,41.45
2023-04-30T18:27:08.336Z,41.43
2023-04-30T18:29:36.463Z,41.33
2023-04-30T18:32:03.933Z,41.21
2023-04-30T18:34:32.029Z,41.17
2023-04-30T18:36:59.347Z,41.18
2023-04-30T18:39:27.431Z,40.99
2023-04-30T18:41:54.752Z,41.49
2023-04-30T18:44:29.359Z,41.25
2023-04-30T18:46:57.100Z,41.26
2023-04-30T18:49:24.647Z,41.22
2023-04-30T18:51:51.930Z,41.27
2023-04-30T18:54:19.439Z,41.19
2023-04-30T18:56:47.093Z,41.24
2023-04-30T18:59:14.890Z,41.24
2023-04-30T19:01:42.577Z,41.09
2023-04-30T19:04:13.610Z,41.26
2023-04-30T19:06:41.083Z,41.46
2023-04-30T19:09:09.314Z,41.31
2023-04-30T19:11:36.560Z,41.35
2023-04-30T19:14:05.127Z,41.42
2023-04-30T19:16:32.629Z,41.67
2023-04-30T19:19:00.138Z,41.67
2023-04-30T19:21:28.429Z,41.69
2023-04-30T19:23:57.760Z,41.58
2023-04-30T19:26:25.997Z,41.75
2023-04-30T19:28:53.736Z,41.76
2023-04-30T19:31:22.519Z,41.67
2023-04-30T19:33:50.108Z,41.87
2023-04-30T19:36:17.580Z,42.08
2023-04-30T19:38:45.307Z,42.04
2023-04-30T19:41:12.586Z,41.95
2023-04-30T19:43:40.607Z,41.92
2023-04-30T19:46:08.012Z,42.20
2023-04-30T19:48:35.835Z,42.08
2023-04-30T19:51:04.802Z,42.12
2023-04-30T19:53:32.444Z,42.19
2023-04-30T19:55:59.941Z,42.30
2023-04-30T19:58:27.422Z,42.16
2023-04-30T20:00:55.877Z,42.25
2023-04-30T20:03:25.206Z,42.30
2023-04-30T20:05:53.105Z,42.19
2023-04-30T20:08:21.887Z,42.41
2023-04-30T20:10:50.116Z,42.22
2023-04-30T20:13:17.869Z,42.12
2023-04-30T20:15:45.428Z,42.51
2023-04-30T20:18:13.509Z,42.19
2023-04-30T20:20:40.892Z,42.37
2023-04-30T20:23:16.112Z,42.32
2023-04-30T20:25:47.824Z,42.52
2023-04-30T20:28:16.873Z,42.46
2023-04-30T20:30:44.440Z,42.20
2023-04-30T20:33:12.955Z,42.60
2023-04-30T20:35:47.661Z,42.47
2023-04-30T20:38:18.868Z,42.58
2023-04-30T20:40:47.155Z,42.62
2023-04-30T20:43:16.929Z,42.63
2023-04-30T20:45:45.266Z,42.88
2023-04-30T20:48:12.952Z,42.94
2023-04-30T20:50:41.166Z,42.92
2023-04-30T20:53:11.050Z,43.01
2023-04-30T20:55:38.664Z,43.06
2023-04-30T20:58:08.818Z,43.10
2023-04-30T21:00:36.289Z,42.97
2023-04-30T21:03:04.327Z,43.09
2023-04-30T21:05:32.227Z,43.08
2023-04-30T21:08:01.616Z,43.22
2023-04-30T21:10:36.456Z,43.16
2023-04-30T21:13:05.831Z,43.10
2023-04-30T21:15:35.525Z,43.16
2023-04-30T21:18:03.480Z,43.14
2023-04-30T21:20:31.487Z,43.02
2023-04-30T21:22:59.359Z,43.03
2023-04-30T21:25:26.732Z,43.11
2023-04-30T21:27:55.260Z,43.10
2023-04-30T21:30:25.684Z,43.14
2023-04-30T21:32:58.470Z,43.20
2023-04-30T21:35:27.992Z,43.16
2023-04-30T21:37:55.836Z,43.11
2023-04-30T21:40:23.100Z,43.05
2023-04-30T21:42:51.948Z,43.05
2023-04-30T21:45:19.733Z,43.27
2023-04-30T21:47:48.089Z,43.21
2023-04-30T21:50:15.473Z,43.29
2023-04-30T21:52:43.194Z,43.28
2023-04-30T21:55:10.583Z,43.36
2023-04-30T21:57:38.226Z,43.21
2023-04-30T22:00:06.615Z,43.32
2023-04-30T22:02:34.872Z,43.28
2023-04-30T22:05:02.928Z,43.32
2023-04-30T22:07:31.170Z,43.35
2023-04-30T22:09:58.662Z,43.52
2023-04-30T22:12:26.680Z,43.33
2023-04-30T22:14:56.917Z,43.47
2023-04-30T22:17:24.860Z,43.47
2023-04-30T22:19:52.699Z,43.43
2023-04-30T22:22:20.251Z,43.46
2023-04-30T22:24:47.623Z,43.38
2023-04-30T22:27:15.375Z,43.39
2023-04-30T22:29:43.266Z,43.46
2023-04-30T22:32:11.404Z,43.57
2023-04-30T22:34:40.913Z,43.53
2023-04-30T22:37:11.714Z,43.45
2023-04-30T22:39:39.325Z,43.55
2023-04-30T22:42:09.281Z,43.46
2023-04-30T22:44:37.824Z,43.50
2023-04-30T22:47:05.936Z,43.65
2023-04-30T22:49:34.730Z,43.68
2023-04-30T22:52:02.287Z,43.50
2023-04-30T22:54:29.555Z,43.59
2023-04-30T22:56:58.520Z,43.58
2023-04-30T22:59:25.944Z,43.63
2023-04-30T23:01:53.443Z,43.55
2023-04-30T23:04:21.088Z,43.57
2023-04-30T23:06:48.702Z,43.71
2023-04-30T23:09:16.116Z,43.56
2023-04-30T23:11:44.720Z,43.68
2023-04-30T23:14:12.138Z,43.64
2023-04-30T23:16:42.780Z,43.73
2023-04-30T23:19:10.662Z,43.76
2023-04-30T23:21:38.489Z,43.83
2023-04-30T23:24:05.786Z,43.75
2023-04-30T23:26:33.348Z,43.90
2023-04-30T23:29:00.940Z,43.74
2023-04-30T23:31:28.628Z,43.85
2023-04-30T23:33:56.131Z,43.87
2023-04-30T23:36:24.015Z,43.76
2023-04-30T23:38:51.670Z,43.97
2023-04-30T23:41:19.137Z,43.98
2023-04-30T23:43:46.435Z,43.84
2023-04-30T23:46:15.916Z,43.82
2023-04-30T23:48:43.226Z,44.00
2023-04-30T23:51:10.893Z,43.93
2023-04-30T23:53:38.142Z,43.96
2023-04-30T23:56:05.907Z,43.90
2023-04-30T23:58:33.656Z,43.91
